Time;durP1;ratioP1;P1;durP2;ratioP2;P2;SDS_P1;SDS_P2;PMS_P1;PMS_P2;Temp;Humidity;BMP_temperature;BMP_pressure;BME280_temperature;BME280_humidity;BME280_pressure;Samples;Min_cycle;Max_cycle;Signal;HPM_P1;HPM_P2
2021/12/31 00:00:05;;;;;;;;;;;13.80;99.90;;;;;;10168102;28;84347;-56
2021/12/31 00:05:06;;;;;;;;;;;13.90;99.90;;;;;;10167331;28;86070;-52
2021/12/31 00:10:07;;;;;;;;;;;13.80;99.90;;;;;;10168170;28;84826;-54
2021/12/31 00:15:08;;;;;;;;;;;13.70;99.90;;;;;;10168808;28;84904;-56
2021/12/31 00:20:16;;;;;;;;;;;13.80;99.90;;;;;;10167878;28;84061;-58
2021/12/31 00:25:18;;;;;;;;;;;13.80;99.90;;;;;;10168609;28;84101;-58
2021/12/31 00:30:18;;;;;;;;;;;13.80;99.90;;;;;;10167414;28;84771;-56
2021/12/31 00:35:19;;;;;;;;;;;13.80;99.90;;;;;;10167715;28;84285;-56
2021/12/31 00:40:20;;;;;;;;;;;13.80;99.90;;;;;;10167621;28;84062;-57
2021/12/31 00:45:24;;;;;;;4.10;2.00;;;13.90;99.90;;;;;;10167711;28;84787;-59
2021/12/31 00:50:24;;;;;;;;;;;13.80;99.90;;;;;;10165157;28;84164;-58
2021/12/31 00:55:25;;;;;;;6.10;1.65;;;13.80;99.90;;;;;;10167026;28;84190;-55
2021/12/31 01:00:26;;;;;;;4.60;2.10;;;13.80;99.90;;;;;;10166714;28;84934;-54
2021/12/31 01:05:26;;;;;;;;;;;13.80;99.90;;;;;;10166746;28;84146;-56
2021/12/31 01:10:28;;;;;;;;;;;13.80;99.90;;;;;;10166871;28;84153;-58
2021/12/31 01:15:39;;;;;;;;;;;13.80;99.90;;;;;;10166624;28;84944;-53
2021/12/31 01:20:40;;;;;;;;;;;13.90;99.90;;;;;;10166200;28;84054;-58
2021/12/31 01:25:40;;;;;;;;;;;13.80;99.90;;;;;;10166242;28;84073;-56
2021/12/31 01:30:41;;;;;;;;;;;13.90;99.90;;;;;;10166265;28;84865;-56
2021/12/31 01:35:42;;;;;;;;;;;13.80;99.90;;;;;;10166102;28;84889;-56
2021/12/31 01:40:42;;;;;;;;;;;13.80;99.90;;;;;;10166240;28;84896;-54
2021/12/31 01:45:46;;;;;;;;;;;13.80;99.90;;;;;;10164954;28;84149;-56
2021/12/31 01:50:47;;;;;;;;;;;13.90;99.90;;;;;;10163703;28;84909;-56
2021/12/31 01:55:50;;;;;;;;;;;13.90;99.90;;;;;;10164932;28;84179;-58
2021/12/31 02:00:50;;;;;;;;;;;13.80;99.90;;;;;;10165003;28;84112;-56
2021/12/31 02:05:51;;;;;;;;;;;14.00;99.90;;;;;;10147013;28;86139;-55
2021/12/31 02:10:52;;;;;;;;;;;13.90;99.90;;;;;;10170078;28;84126;-54
2021/12/31 02:15:52;;;;;;;;;;;13.90;99.90;;;;;;10171527;28;84724;-58
2021/12/31 02:20:53;;;;;;;;;;;14.00;99.90;;;;;;10170072;28;84888;-55
2021/12/31 02:25:54;;;;;;;;;;;14.00;99.90;;;;;;10170775;28;84125;-56
2021/12/31 02:31:00;;;;;;;;;;;14.00;99.90;;;;;;10170341;28;84122;-53
2021/12/31 02:36:02;;;;;;;;;;;14.10;99.90;;;;;;10170278;28;84090;-56
2021/12/31 02:41:03;;;;;;;;;;;14.20;99.90;;;;;;10170327;28;84797;-55
2021/12/31 02:46:04;;;;;;;;;;;14.20;99.90;;;;;;10170364;28;84351;-54
2021/12/31 02:51:06;;;;;;;;;;;14.20;99.90;;;;;;10169044;28;84896;-57
2021/12/31 02:56:11;;;;;;;;;;;14.20;99.90;;;;;;10169808;28;84057;-57
2021/12/31 03:01:12;;;;;;;;;;;14.30;99.90;;;;;;10168573;28;84106;-56
2021/12/31 03:06:13;;;;;;;;;;;14.20;99.90;;;;;;10169755;28;84350;-54
2021/12/31 03:11:16;;;;;;;;;;;14.20;99.90;;;;;;10169424;28;84753;-56
2021/12/31 03:16:17;;;;;;;;;;;14.20;99.90;;;;;;10169974;28;85024;-57
2021/12/31 03:21:22;;;;;;;;;;;14.20;99.90;;;;;;10168543;28;84038;-54
2021/12/31 03:26:22;;;;;;;;;;;14.10;99.90;;;;;;10170081;28;84079;-52
2021/12/31 03:31:23;;;;;;;;;;;14.10;99.90;;;;;;10169281;28;84253;-51
2021/12/31 03:36:24;;;;;;;;;;;14.20;99.90;;;;;;10170052;28;84787;-55
2021/12/31 03:41:26;;;;;;;;;;;14.10;99.90;;;;;;10169445;28;84147;-57
2021/12/31 03:46:26;;;;;;;;;;;14.10;99.90;;;;;;10169201;28;84990;-52
2021/12/31 03:51:27;;;;;;;;;;;14.20;99.90;;;;;;10166209;28;85032;-55
2021/12/31 03:56:31;;;;;;;;;;;14.20;99.90;;;;;;10168206;28;84131;-53
2021/12/31 04:01:32;;;;;;;;;;;14.20;99.90;;;;;;10168849;28;84057;-58
2021/12/31 04:06:32;;;;;;;;;;;14.20;99.90;;;;;;10169559;28;85401;-58
2021/12/31 04:11:33;;;;;;;;;;;14.20;99.90;;;;;;10165306;28;86067;-56
2021/12/31 04:16:33;;;;;;;;;;;14.20;99.90;;;;;;10166886;28;84090;-57
2021/12/31 04:21:34;;;;;;;;;;;14.20;99.90;;;;;;10167595;28;84192;-57
2021/12/31 04:26:35;;;;;;;;;;;14.20;99.90;;;;;;10167094;28;84171;-55
2021/12/31 04:31:35;;;;;;;;;;;14.20;99.90;;;;;;10164932;28;85933;-58
2021/12/31 04:36:36;;;;;;;;;;;14.20;99.90;;;;;;10167318;28;84091;-59
2021/12/31 04:41:36;;;;;;;;;;;14.20;99.90;;;;;;10167224;28;84879;-56
2021/12/31 04:46:37;;;;;;;;;;;14.20;99.90;;;;;;10167060;28;84974;-57
2021/12/31 04:51:37;;;;;;;;;;;14.30;99.90;;;;;;10165535;28;84776;-57
2021/12/31 04:56:38;;;;;;;;;;;14.20;99.90;;;;;;10165140;28;86273;-54
2021/12/31 05:01:38;;;;;;;;;;;14.20;99.90;;;;;;10166261;28;83989;-56
2021/12/31 05:06:40;;;;;;;;;;;14.30;99.90;;;;;;10166709;28;84348;-55
2021/12/31 05:11:40;;;;;;;;;;;14.20;99.90;;;;;;10166391;28;84055;-54
2021/12/31 05:16:41;;;;;;;2.40;1.00;;;14.30;99.90;;;;;;10164995;28;84959;-57
2021/12/31 05:21:41;;;;;;;;;;;14.30;99.90;;;;;;10165621;28;84906;-56
2021/12/31 05:26:42;;;;;;;;;;;14.30;99.90;;;;;;10164970;28;84868;-55
2021/12/31 05:31:43;;;;;;;;;;;14.30;99.90;;;;;;10164630;28;84174;-55
2021/12/31 05:36:44;;;;;;;;;;;14.30;99.90;;;;;;10164245;28;84125;-56
2021/12/31 05:41:44;;;;;;;;;;;14.20;99.90;;;;;;10165365;28;84888;-57
2021/12/31 05:46:48;;;;;;;;;;;14.20;99.90;;;;;;10171620;28;84238;-56
2021/12/31 05:51:50;;;;;;;;;;;14.20;99.90;;;;;;10227953;23;84987;-59
2021/12/31 05:56:51;;;;;;;;;;;14.10;99.90;;;;;;10210357;28;86953;-58
2021/12/31 06:01:51;;;;;;;;;;;14.20;99.90;;;;;;10210077;28;85963;-58
2021/12/31 06:06:52;;;;;;;;;;;14.10;99.90;;;;;;10211933;28;84794;-56
2021/12/31 06:11:53;;;;;;;;;;;14.10;99.90;;;;;;10212065;28;84005;-58
2021/12/31 06:16:53;;;;;;;;;;;14.10;99.90;;;;;;10210904;28;84962;-56
2021/12/31 06:21:54;;;;;;;;;;;14.10;99.90;;;;;;10210730;28;84923;-54
2021/12/31 06:26:55;;;;;;;;;;;14.10;99.90;;;;;;10210627;28;84123;-56
2021/12/31 06:31:55;;;;;;;;;;;14.10;99.90;;;;;;10210481;28;84351;-57
2021/12/31 06:36:56;;;;;;;;;;;14.00;99.90;;;;;;10209895;28;85038;-58
2021/12/31 06:41:57;;;;;;;;;;;14.00;99.90;;;;;;10210214;28;84081;-58
2021/12/31 06:46:57;;;;;;;;;;;13.90;99.90;;;;;;10206302;28;85760;-47
2021/12/31 06:51:58;;;;;;;;;;;13.90;99.90;;;;;;10207581;28;85009;-57
2021/12/31 06:56:58;;;;;;;;;;;13.90;99.90;;;;;;10206726;28;84987;-53
2021/12/31 07:01:59;;;;;;;;;;;13.90;99.90;;;;;;10206834;28;84813;-53
2021/12/31 07:06:59;;;;;;;;;;;13.90;99.90;;;;;;10207776;28;84937;-57
2021/12/31 07:12:00;;;;;;;;;;;13.90;99.90;;;;;;10207269;28;84975;-58
2021/12/31 07:17:00;;;;;;;;;;;14.00;99.90;;;;;;10207108;28;84094;-54
2021/12/31 07:22:01;;;;;;;;;;;14.00;99.90;;;;;;10207869;28;84161;-55
2021/12/31 07:27:01;;;;;;;;;;;14.10;99.90;;;;;;10207767;28;84911;-53
2021/12/31 07:32:02;;;;;;;;;;;14.00;99.90;;;;;;10207617;28;84137;-56
2021/12/31 07:37:02;;;;;;;;;;;14.10;99.90;;;;;;10206839;28;84031;-55
2021/12/31 07:42:03;;;;;;;;;;;14.10;99.90;;;;;;10205349;28;84927;-53
2021/12/31 07:47:08;;;;;;;;;;;14.10;99.90;;;;;;10207227;28;84915;-58
2021/12/31 07:52:08;;;;;;;;;;;14.10;99.90;;;;;;10205883;28;84031;-55
2021/12/31 07:57:09;;;;;;;;;;;14.20;99.90;;;;;;10206034;28;84091;-57
2021/12/31 08:02:09;;;;;;;;;;;14.20;99.90;;;;;;10205874;28;84143;-56
2021/12/31 08:07:10;;;;;;;;;;;14.20;99.90;;;;;;10205717;28;84072;-53
2021/12/31 08:12:10;;;;;;;;;;;14.20;99.90;;;;;;10205727;28;84013;-53
2021/12/31 08:17:11;;;;;;;;;;;14.20;99.90;;;;;;10206258;28;84967;-56
2021/12/31 08:22:11;;;;;;;;;;;14.20;99.90;;;;;;10205174;28;84888;-57
2021/12/31 08:27:12;;;;;;;;;;;14.30;99.90;;;;;;10205549;28;84115;-58
2021/12/31 08:32:12;;;;;;;;;;;14.30;99.90;;;;;;10205351;28;84254;-59
2021/12/31 08:37:13;;;;;;;;;;;14.40;99.90;;;;;;10206099;28;84423;-57
2021/12/31 08:42:14;;;;;;;;;;;14.30;99.90;;;;;;10204414;28;84083;-54
2021/12/31 08:47:14;;;;;;;;;;;14.30;99.90;;;;;;10202537;28;86338;-53
2021/12/31 08:52:15;;;;;;;;;;;14.20;99.90;;;;;;10204298;28;84333;-55
2021/12/31 08:57:15;;;;;;;;;;;14.30;99.90;;;;;;10204326;28;84159;-59
2021/12/31 09:02:16;;;;;;;;;;;14.30;99.90;;;;;;10205199;28;85080;-57
2021/12/31 09:07:17;;;;;;;;;;;14.30;99.90;;;;;;10204520;28;84082;-54
2021/12/31 09:12:17;;;;;;;;;;;14.60;99.90;;;;;;10203332;28;84113;-57
2021/12/31 09:17:18;;;;;;;;;;;14.40;99.90;;;;;;10202908;28;84157;-53
2021/12/31 09:22:18;;;;;;;;;;;14.60;99.90;;;;;;10203160;28;86201;-55
2021/12/31 09:27:19;;;;;;;;;;;15.10;99.90;;;;;;10203452;28;84031;-56
2021/12/31 09:32:20;;;;;;;;;;;15.10;99.90;;;;;;10203523;28;85083;-53
2021/12/31 09:37:21;;;;;;;;;;;15.10;99.90;;;;;;10201482;28;84101;-52
2021/12/31 09:42:21;;;;;;;;;;;14.80;99.90;;;;;;10202219;28;84278;-52
2021/12/31 09:47:22;;;;;;;;;;;14.70;99.90;;;;;;10202080;28;85389;-58
2021/12/31 09:52:22;;;;;;;;;;;14.70;99.90;;;;;;10201454;28;85157;-56
2021/12/31 09:57:23;;;;;;;;;;;14.60;99.90;;;;;;10200162;28;85911;-56
2021/12/31 10:02:33;;;;;;;;;;;14.50;99.90;;;;;;10201978;28;84932;-57
2021/12/31 10:07:34;;;;;;;;;;;14.40;99.90;;;;;;10200272;28;85834;-56
2021/12/31 10:12:45;;;;;;;;;;;14.30;99.90;;;;;;10200956;28;86203;-54
2021/12/31 10:17:46;;;;;;;;;;;14.40;99.90;;;;;;10202509;28;84964;-55
2021/12/31 10:22:46;;;;;;;;;;;14.40;99.90;;;;;;10199818;28;84886;-55
2021/12/31 10:27:51;;;;;;;;;;;14.60;99.90;;;;;;10202740;28;84105;-55
2021/12/31 10:32:52;;;;;;;;;;;14.70;99.90;;;;;;10211720;28;84808;-54
2021/12/31 10:37:58;;;;;;;;;;;14.80;99.90;;;;;;10211841;28;83992;-59
2021/12/31 10:43:06;;;;;;;;;;;14.80;99.90;;;;;;10211085;28;84115;-56
2021/12/31 10:48:08;;;;;;;;;;;14.60;99.90;;;;;;10210314;28;84858;-56
2021/12/31 10:53:11;;;;;;;;;;;14.60;99.90;;;;;;10210045;28;85382;-57
2021/12/31 10:58:12;;;;;;;;;;;14.60;99.90;;;;;;10210239;28;84946;-60
2021/12/31 11:03:13;;;;;;;;;;;14.50;99.90;;;;;;10209706;28;84728;-57
2021/12/31 11:08:13;;;;;;;;;;;14.50;99.90;;;;;;10208986;28;84773;-56
2021/12/31 11:13:21;;;;;;;;;;;14.40;99.90;;;;;;10208455;28;84717;-56
2021/12/31 11:18:23;;;;;;;;;;;14.50;99.90;;;;;;10206175;28;84240;-55
2021/12/31 11:23:26;;;;;;;;;;;14.50;99.90;;;;;;10208509;28;84846;-53
2021/12/31 11:28:34;;;;;;;;;;;14.30;99.90;;;;;;10208388;28;84856;-56
2021/12/31 11:33:34;;;;;;;;;;;14.30;99.90;;;;;;10209591;28;84981;-55
2021/12/31 11:38:37;;;;;;;;;;;14.30;99.90;;;;;;10208388;28;85045;-57
2021/12/31 11:43:38;;;;;;;;;;;14.30;99.90;;;;;;10207104;28;84947;-54
2021/12/31 11:48:48;;;;;;;;;;;14.30;99.90;;;;;;10221815;23;84933;-57
2021/12/31 11:54:01;;;;;;;;;;;14.20;99.90;;;;;;10167123;28;84215;-56
2021/12/31 11:59:14;;;;;;;;;;;14.30;99.90;;;;;;10166813;28;84715;-56
2021/12/31 12:04:21;;;;;;;;;;;14.20;99.90;;;;;;10167098;28;84013;-54
2021/12/31 12:09:22;;;;;;;;;;;14.20;99.90;;;;;;10166265;28;84850;-56
2021/12/31 12:14:29;;;;;;;;;;;14.10;99.90;;;;;;10166837;28;85049;-54
2021/12/31 12:19:45;;;;;;;;;;;14.20;99.90;;;;;;10166152;28;84966;-58
2021/12/31 12:24:46;;;;;;;;;;;14.20;99.90;;;;;;10167010;28;84092;-56
2021/12/31 12:29:47;;;;;;;;;;;14.10;99.90;;;;;;10166348;28;84348;-56
2021/12/31 12:34:47;;;;;;;;;;;14.10;99.90;;;;;;10166677;28;84242;-55
2021/12/31 12:39:56;;;;;;;;;;;14.20;99.90;;;;;;10166048;28;84130;-57
2021/12/31 12:45:06;;;;;;;;;;;14.20;99.90;;;;;;10165897;28;84280;-57
2021/12/31 12:50:09;;;;;;;;;;;14.30;99.90;;;;;;10164715;28;84225;-56
2021/12/31 12:55:13;;;;;;;;;;;14.30;99.90;;;;;;10164882;28;84830;-55
2021/12/31 13:00:14;;;;;;;;;;;14.30;99.90;;;;;;10165038;28;84282;-59
2021/12/31 13:05:15;;;;;;;;;;;14.30;99.90;;;;;;10165719;28;84756;-54
2021/12/31 13:10:15;;;;;;;;;;;14.30;99.90;;;;;;10163482;28;84649;-55
2021/12/31 13:15:17;;;;;;;1.80;0.80;;;14.40;99.90;;;;;;10167963;28;84249;-53
2021/12/31 13:20:21;;;;;;;;;;;14.40;99.90;;;;;;10164568;28;84101;-54
2021/12/31 13:25:40;;;;;;;;;;;14.40;99.90;;;;;;10165120;28;84114;-56
2021/12/31 13:30:50;;;;;;;;;;;14.40;99.90;;;;;;10164592;28;84937;-56
2021/12/31 13:36:09;;;;;;;;;;;14.50;99.90;;;;;;10164380;28;84798;-54
2021/12/31 13:41:17;;;;;;;;;;;14.50;99.90;;;;;;10164800;28;84154;-52
2021/12/31 13:46:18;;;;;;;;;;;14.40;99.90;;;;;;10165456;28;84123;-56
2021/12/31 13:51:26;;;;;;;;;;;14.50;99.90;;;;;;10164632;28;84973;-56
2021/12/31 13:56:30;;;;;;;;;;;14.50;99.90;;;;;;10163679;28;84872;-57
2021/12/31 14:01:31;;;;;;;3.45;0.95;;;14.50;99.90;;;;;;10165866;28;85047;-56
2021/12/31 14:06:32;;;;;;;;;;;14.50;99.90;;;;;;10169535;28;85063;-56
2021/12/31 14:11:32;;;;;;;;;;;14.50;99.90;;;;;;10171552;28;84039;-56
2021/12/31 14:16:33;;;;;;;;;;;14.50;99.90;;;;;;10170961;28;84307;-55
2021/12/31 14:21:33;;;;;;;;;;;14.50;99.90;;;;;;10170731;28;84930;-56
2021/12/31 14:26:36;;;;;;;;;;;14.50;99.90;;;;;;10171564;28;84005;-56
2021/12/31 14:31:37;;;;;;;;;;;14.50;99.90;;;;;;10173080;28;84144;-57
2021/12/31 14:36:52;;;;;;;;;;;14.50;99.90;;;;;;10173972;28;84101;-54
2021/12/31 14:41:54;;;;;;;;;;;14.50;99.90;;;;;;10174304;28;84219;-51
2021/12/31 14:46:55;;;;;;;;;;;14.50;99.90;;;;;;10171860;28;84838;-53
2021/12/31 14:51:55;;;;;;;;;;;14.50;99.90;;;;;;10169752;28;84579;-54
2021/12/31 14:56:57;;;;;;;;;;;14.50;99.90;;;;;;10169274;28;84340;-54
2021/12/31 15:01:57;;;;;;;;;;;14.50;99.90;;;;;;10168532;28;84123;-54
2021/12/31 15:06:58;;;;;;;;;;;14.50;99.90;;;;;;10170409;28;85118;-54
2021/12/31 15:11:59;;;;;;;;;;;14.50;99.90;;;;;;10168281;28;84109;-57
2021/12/31 15:16:59;;;;;;;;;;;14.50;99.90;;;;;;10166695;28;86949;-59
2021/12/31 15:22:00;;;;;;;;;;;14.50;99.90;;;;;;10167755;28;84845;-56
2021/12/31 15:27:02;;;;;;;;;;;14.50;99.90;;;;;;10167670;28;84046;-57
2021/12/31 15:32:03;;;;;;;;;;;14.40;99.90;;;;;;10168018;28;84092;-58
2021/12/31 15:37:04;;;;;;;;;;;14.40;99.90;;;;;;10167631;28;84009;-52
2021/12/31 15:42:05;;;;;;;;;;;14.40;99.90;;;;;;10166363;28;84303;-54
2021/12/31 15:47:06;;;;;;;;;;;14.40;99.90;;;;;;10166401;28;85235;-55
2021/12/31 15:52:07;;;;;;;;;;;14.40;99.90;;;;;;10167168;28;84377;-56
2021/12/31 15:57:07;;;;;;;;;;;14.40;99.90;;;;;;10167495;28;84130;-56
2021/12/31 16:02:08;;;;;;;;;;;14.30;99.90;;;;;;10166004;28;84224;-57
2021/12/31 16:07:08;;;;;;;;;;;14.30;99.90;;;;;;10164722;28;86088;-54
2021/12/31 16:12:09;;;;;;;;;;;14.30;99.90;;;;;;10165970;28;84806;-55
2021/12/31 16:17:10;;;;;;;;;;;14.30;99.90;;;;;;10166295;28;84143;-55
2021/12/31 16:22:10;;;;;;;;;;;14.20;99.90;;;;;;10166729;28;84885;-54
2021/12/31 16:27:11;;;;;;;;;;;14.10;99.90;;;;;;10164582;28;84715;-55
2021/12/31 16:32:11;;;;;;;;;;;14.10;99.90;;;;;;10166279;28;84743;-55
2021/12/31 16:37:12;;;;;;;;;;;14.00;99.90;;;;;;10166292;28;84312;-54
2021/12/31 16:42:13;;;;;;;;;;;14.00;99.90;;;;;;10166125;28;84977;-55
2021/12/31 16:47:14;;;;;;;;;;;14.00;99.90;;;;;;10164022;28;86812;-56
2021/12/31 16:52:15;;;;;;;;;;;13.90;99.90;;;;;;10165175;28;84042;-55
2021/12/31 16:57:15;;;;;;;;;;;13.80;99.90;;;;;;10165214;28;84197;-56
2021/12/31 17:02:16;;;;;;;;;;;13.80;99.90;;;;;;10165498;28;84799;-54
2021/12/31 17:07:17;;;;;;;;;;;13.70;99.90;;;;;;10165447;28;84381;-51
2021/12/31 17:12:17;;;;;;;;;;;13.70;99.90;;;;;;10165968;28;85127;-51
2021/12/31 17:17:18;;;;;;;;;;;13.60;99.90;;;;;;10164374;28;85019;-53
2021/12/31 17:22:18;;;;;;;;;;;13.70;99.90;;;;;;10165132;28;84785;-55
2021/12/31 17:27:19;;;;;;;;;;;13.70;99.90;;;;;;10165075;28;84110;-56
2021/12/31 17:32:19;;;;;;;;;;;13.70;99.90;;;;;;10165617;28;84300;-56
2021/12/31 17:37:20;;;;;;;;;;;13.70;99.90;;;;;;10164648;28;85003;-55
2021/12/31 17:42:21;;;;;;;;;;;13.70;99.90;;;;;;10163409;28;84851;-56
2021/12/31 17:47:22;;;;;;;;;;;13.70;99.90;;;;;;10163893;28;85117;-58
2021/12/31 17:52:22;;;;;;;;;;;13.70;99.90;;;;;;10216119;23;84501;-49
2021/12/31 17:57:23;;;;;;;;;;;13.70;99.90;;;;;;10202148;28;84935;-48
2021/12/31 18:02:23;;;;;;;;;;;13.70;99.90;;;;;;10201281;28;84131;-48
2021/12/31 18:07:24;;;;;;;;;;;13.80;99.90;;;;;;10201076;28;84913;-48
2021/12/31 18:12:24;;;;;;;;;;;13.80;99.90;;;;;;10200646;28;84108;-51
2021/12/31 18:17:25;;;;;;;;;;;13.80;99.90;;;;;;10201161;28;84215;-52
2021/12/31 18:22:26;;;;;;;;;;;13.70;99.90;;;;;;10200874;28;84917;-52
2021/12/31 18:27:27;;;;;;;;;;;13.80;99.90;;;;;;10201038;28;84866;-50
2021/12/31 18:32:27;;;;;;;;;;;13.70;99.90;;;;;;10200704;28;85052;-48
2021/12/31 18:37:29;;;;;;;;;;;13.70;99.90;;;;;;10200194;28;83961;-52
2021/12/31 18:42:29;;;;;;;;;;;13.70;99.90;;;;;;10200371;28;84822;-48
2021/12/31 18:47:38;;;;;;;;;;;13.80;99.90;;;;;;10199673;28;84830;-50
2021/12/31 18:52:39;;;;;;;;;;;13.70;99.90;;;;;;10203328;28;84903;-50
2021/12/31 18:57:39;;;;;;;;;;;13.70;99.90;;;;;;10206920;28;84924;-49
2021/12/31 19:02:40;;;;;;;;;;;13.70;99.90;;;;;;10206621;28;84957;-49
2021/12/31 19:07:42;;;;;;;;;;;13.70;99.90;;;;;;10206479;28;84018;-46
2021/12/31 19:12:42;;;;;;;;;;;13.70;99.90;;;;;;10205769;28;84177;-48
2021/12/31 19:17:45;;;;;;;;;;;13.70;99.90;;;;;;10206648;28;84106;-48
2021/12/31 19:22:46;;;;;;;;;;;13.70;99.90;;;;;;10206192;28;86698;-48
2021/12/31 19:27:46;;;;;;;;;;;13.70;99.90;;;;;;10207690;28;84956;-50
2021/12/31 19:32:47;;;;;;;;;;;13.70;99.90;;;;;;10206100;28;84777;-48
2021/12/31 19:37:47;;;;;;;;;;;13.70;99.90;;;;;;10205541;28;84855;-49
2021/12/31 19:42:49;;;;;;;;;;;13.70;99.90;;;;;;10205180;28;84880;-52
2021/12/31 19:47:49;;;;;;;;;;;13.70;99.90;;;;;;10204864;28;84811;-49
2021/12/31 19:52:50;;;;;;;;;;;13.60;99.90;;;;;;10187152;28;87047;-52
2021/12/31 19:57:51;;;;;;;;;;;13.70;99.90;;;;;;10205139;28;84991;-51
2021/12/31 20:02:52;;;;;;;;;;;13.70;99.90;;;;;;10204169;28;85005;-48
2021/12/31 20:07:52;;;;;;;;;;;13.70;99.90;;;;;;10204754;28;84358;-49
2021/12/31 20:12:53;;;;;;;;;;;13.70;99.90;;;;;;10204228;28;84941;-52
2021/12/31 20:17:53;;;;;;;;;;;13.70;99.90;;;;;;10203343;28;84381;-48
2021/12/31 20:22:54;;;;;;;;;;;13.70;99.90;;;;;;10202823;28;84146;-48
2021/12/31 20:27:55;;;;;;;;;;;13.70;99.90;;;;;;10203896;28;84126;-47
2021/12/31 20:32:55;;;;;;;;;;;13.70;99.90;;;;;;10203752;28;84695;-48
2021/12/31 20:37:56;;;;;;;;;;;13.60;99.90;;;;;;10203901;28;84126;-50
2021/12/31 20:42:56;;;;;;;;;;;13.60;99.90;;;;;;10203481;28;84943;-47
2021/12/31 20:47:57;;;;;;;;;;;13.60;99.90;;;;;;10201016;28;84084;-48
2021/12/31 20:52:58;;;;;;;;;;;13.50;99.90;;;;;;10203061;28;84060;-50
2021/12/31 20:57:58;;;;;;;;;;;13.60;99.90;;;;;;10202508;28;84111;-49
2021/12/31 21:02:59;;;;;;;;;;;13.50;99.90;;;;;;10203113;28;84760;-46
2021/12/31 21:08:00;;;;;;;;;;;13.60;99.90;;;;;;10202106;28;84815;-51
2021/12/31 21:13:02;;;;;;;;;;;13.50;99.90;;;;;;10201541;28;84935;-50
2021/12/31 21:18:03;;;;;;;;;;;13.50;99.90;;;;;;10201889;28;84112;-47
2021/12/31 21:23:04;;;;;;;;;;;13.50;99.90;;;;;;10201515;28;84088;-49
2021/12/31 21:28:09;;;;;;;;;;;13.50;99.90;;;;;;10201778;28;84599;-50
2021/12/31 21:33:09;;;;;;;;;;;13.50;99.90;;;;;;10201681;28;84032;-51
2021/12/31 21:38:14;;;;;;;;;;;13.50;99.90;;;;;;10201508;28;84024;-48
2021/12/31 21:43:14;;;;;;;;;;;13.50;99.90;;;;;;10199575;28;86462;-50
2021/12/31 21:48:15;;;;;;;;;;;13.50;99.90;;;;;;10183049;28;86879;-48
2021/12/31 21:53:16;;;;;;;;;;;13.50;99.90;;;;;;10200650;28;84336;-50
2021/12/31 21:58:16;;;;;;;;;;;13.40;99.90;;;;;;10201059;28;84190;-51
2021/12/31 22:03:19;;;;;;;;;;;13.50;99.90;;;;;;10201020;28;84712;-50
2021/12/31 22:08:19;;;;;;;;;;;13.50;99.90;;;;;;10200479;28;84931;-52
2021/12/31 22:13:20;;;;;;;;;;;13.40;99.90;;;;;;10199572;28;84819;-48
2021/12/31 22:18:20;;;;;;;;;;;13.40;99.90;;;;;;10199054;28;84954;-48
2021/12/31 22:23:21;;;;;;;;;;;13.40;99.90;;;;;;10200414;28;84414;-50
2021/12/31 22:28:22;;;;;;;;;;;13.50;99.90;;;;;;10206111;28;84126;-51
2021/12/31 22:33:22;;;;;;;;;;;13.50;99.90;;;;;;10207622;28;84900;-46
2021/12/31 22:38:23;;;;;;;;;;;13.50;99.90;;;;;;10206916;28;84968;-47
2021/12/31 22:43:24;;;;;;;;;;;13.50;99.90;;;;;;10208058;28;84382;-48
2021/12/31 22:48:25;;;;;;;;;;;13.50;99.90;;;;;;10205519;28;84449;-49
2021/12/31 22:53:25;;;;;;;;;;;13.50;99.90;;;;;;10189605;28;87180;-49
2021/12/31 22:58:26;;;;;;;;;;;13.50;99.90;;;;;;10206874;28;84094;-50
2021/12/31 23:03:27;;;;;;;;;;;13.50;99.90;;;;;;10206836;28;84190;-47
2021/12/31 23:08:27;;;;;;;;;;;13.60;99.90;;;;;;10205964;28;85173;-51
2021/12/31 23:13:28;;;;;;;;;;;13.60;99.90;;;;;;10206699;28;85285;-51
2021/12/31 23:18:29;;;;;;;;;;;13.60;99.90;;;;;;10206370;28;84065;-47
2021/12/31 23:23:29;;;;;;;;;;;13.60;99.90;;;;;;10207546;28;85017;-47
2021/12/31 23:28:30;;;;;;;;;;;13.60;99.90;;;;;;10206494;28;84642;-49
2021/12/31 23:33:31;;;;;;;;;;;13.50;99.90;;;;;;10208381;28;84998;-48
2021/12/31 23:38:31;;;;;;;;;;;13.50;99.90;;;;;;10211986;28;84315;-50
2021/12/31 23:43:38;;;;;;;;;;;13.50;99.90;;;;;;10205976;28;84956;-48
2021/12/31 23:48:42;;;;;;;;;;;13.60;99.90;;;;;;10205877;28;84218;-47
2021/12/31 23:53:42;;;;;;;;;;;13.60;99.90;;;;;;10183029;23;84649;-52
2021/12/31 23:58:43;;;;;;;;;;;13.60;99.90;;;;;;10166755;28;84940;-56
